Time;durP1;ratioP1;P1;durP2;ratioP2;P2;SDS_P1;SDS_P2;PMS_P1;PMS_P2;Temp;Humidity;BMP_temperature;BMP_pressure;BME280_temperature;BME280_humidity;BME280_pressure;Samples;Min_cycle;Max_cycle;Signal;HPM_P1;HPM_P2
2024/01/21 00:01:47;;;;;;;3.83;3.00;;;;;;;;;;4917653;29;20405;-68
2024/01/21 00:04:13;;;;;;;3.83;3.10;;;;;;;;;;4917595;29;20397;-68
2024/01/21 00:06:38;;;;;;;6.40;3.22;;;;;;;;;;4917794;29;20504;-69
2024/01/21 00:09:04;;;;;;;3.80;2.78;;;;;;;;;;4917802;29;20032;-68
2024/01/21 00:11:29;;;;;;;5.07;3.22;;;;;;;;;;4917815;29;20032;-68
2024/01/21 00:13:55;;;;;;;4.72;2.85;;;;;;;;;;4917311;29;20107;-67
2024/01/21 00:16:20;;;;;;;5.13;2.85;;;;;;;;;;4917355;29;20038;-68
2024/01/21 00:18:46;;;;;;;4.82;3.00;;;;;;;;;;4917169;29;20047;-68
2024/01/21 00:21:11;;;;;;;3.70;3.10;;;;;;;;;;4917183;29;20032;-69
2024/01/21 00:23:37;;;;;;;4.07;3.10;;;;;;;;;;4917183;29;20032;-69
2024/01/21 00:26:02;;;;;;;3.42;2.90;;;;;;;;;;4917037;29;20032;-69
2024/01/21 00:28:28;;;;;;;4.57;3.42;;;;;;;;;;4900102;29;20036;-69
2024/01/21 00:30:53;;;;;;;5.22;3.22;;;;;;;;;;4900145;29;20090;-69
2024/01/21 00:33:20;;;;;;;3.20;2.90;;;;;;;;;;4917048;29;20047;-69
2024/01/21 00:35:46;;;;;;;3.55;2.97;;;;;;;;;;4900008;29;20043;-70
2024/01/21 00:38:11;;;;;;;3.30;2.88;;;;;;;;;;4916885;29;20028;-68
2024/01/21 00:40:37;;;;;;;3.85;3.25;;;;;;;;;;4916914;29;20401;-67
2024/01/21 00:43:03;;;;;;;5.40;3.05;;;;;;;;;;4900244;29;20031;-69
2024/01/21 00:45:28;;;;;;;3.65;3.10;;;;;;;;;;4916842;29;20024;-68
2024/01/21 00:47:54;;;;;;;4.93;2.78;;;;;;;;;;4916767;29;20433;-67
2024/01/21 00:50:20;;;;;;;5.40;3.05;;;;;;;;;;4916707;29;20042;-70
2024/01/21 00:52:46;;;;;;;4.10;3.13;;;;;;;;;;4916661;29;20029;-68
2024/01/21 00:55:11;;;;;;;3.83;3.00;;;;;;;;;;4916658;29;20032;-70
2024/01/21 00:57:37;;;;;;;3.00;2.70;;;;;;;;;;4916535;29;20032;-69
2024/01/21 01:00:04;;;;;;;4.78;3.20;;;;;;;;;;4916448;29;20044;-70
2024/01/21 01:02:30;;;;;;;4.47;3.40;;;;;;;;;;4916418;29;20386;-69
2024/01/21 01:04:56;;;;;;;4.05;3.35;;;;;;;;;;4916554;29;20101;-70
2024/01/21 01:07:21;;;;;;;4.35;3.20;;;;;;;;;;4916512;29;20032;-67
2024/01/21 01:09:47;;;;;;;4.28;3.33;;;;;;;;;;4916635;29;20103;-71
2024/01/21 01:12:12;;;;;;;3.20;2.85;;;;;;;;;;4916738;29;20474;-71
2024/01/21 01:14:40;;;;;;;3.30;2.70;;;;;;;;;;4916409;29;20445;-66
2024/01/21 01:17:06;;;;;;;4.07;3.10;;;;;;;;;;4916311;29;20088;-73
2024/01/21 01:19:32;;;;;;;3.50;2.80;;;;;;;;;;4916266;29;20024;-71
2024/01/21 01:21:58;;;;;;;4.35;3.20;;;;;;;;;;4916451;29;20433;-70
2024/01/21 01:24:23;;;;;;;5.70;2.90;;;;;;;;;;4916309;29;20017;-71
2024/01/21 01:26:49;;;;;;;3.40;2.88;;;;;;;;;;4916257;29;20115;-70
2024/01/21 01:29:14;;;;;;;3.03;2.65;;;;;;;;;;4916145;29;20061;-70
2024/01/21 01:31:40;;;;;;;3.95;3.25;;;;;;;;;;4916236;29;20159;-67
2024/01/21 01:34:05;;;;;;;3.83;3.10;;;;;;;;;;4898374;29;20028;-70
2024/01/21 01:36:31;;;;;;;3.67;2.80;;;;;;;;;;4916310;29;20388;-67
2024/01/21 01:38:56;;;;;;;3.58;2.92;;;;;;;;;;4916083;29;20464;-70
2024/01/21 01:41:22;;;;;;;4.20;3.13;;;;;;;;;;4916399;29;20585;-72
2024/01/21 01:43:48;;;;;;;3.58;2.78;;;;;;;;;;4910760;29;20452;-71
2024/01/21 01:46:14;;;;;;;4.28;3.35;;;;;;;;;;4935071;29;20051;-70
2024/01/21 01:48:39;;;;;;;3.25;2.80;;;;;;;;;;4935345;29;20451;-69
2024/01/21 01:51:06;;;;;;;3.30;2.75;;;;;;;;;;4917905;29;20441;-66
2024/01/21 01:53:34;;;;;;;4.22;3.33;;;;;;;;;;4935021;29;20028;-66
2024/01/21 01:56:00;;;;;;;3.70;2.90;;;;;;;;;;4934792;29;20028;-69
2024/01/21 01:58:29;;;;;;;3.72;3.10;;;;;;;;;;4934723;29;20094;-67
2024/01/21 02:00:56;;;;;;;3.25;2.95;;;;;;;;;;4934976;29;20031;-69
2024/01/21 02:03:23;;;;;;;3.97;3.00;;;;;;;;;;4934714;29;20126;-70
2024/01/21 02:05:49;;;;;;;3.50;2.90;;;;;;;;;;4934694;29;20039;-68
2024/01/21 02:08:14;;;;;;;3.13;2.78;;;;;;;;;;4934907;29;20106;-69
2024/01/21 02:10:40;;;;;;;4.10;2.78;;;;;;;;;;4934841;29;20035;-69
2024/01/21 02:13:06;;;;;;;3.28;2.65;;;;;;;;;;4934984;29;20024;-66
2024/01/21 02:15:31;;;;;;;2.97;2.67;;;;;;;;;;4934818;29;20119;-66
2024/01/21 02:17:57;;;;;;;3.17;2.88;;;;;;;;;;4934625;29;20066;-68
2024/01/21 02:20:22;;;;;;;2.90;2.60;;;;;;;;;;4934669;29;20039;-69
2024/01/21 02:22:48;;;;;;;4.40;3.28;;;;;;;;;;4934772;29;20039;-68
2024/01/21 02:25:14;;;;;;;3.35;2.50;;;;;;;;;;4934580;29;20031;-67
2024/01/21 02:27:40;;;;;;;4.13;3.08;;;;;;;;;;4934532;29;20020;-67
2024/01/21 02:30:06;;;;;;;2.97;2.60;;;;;;;;;;4934520;29;20492;-69
2024/01/21 02:32:31;;;;;;;5.43;2.90;;;;;;;;;;4934638;29;20028;-69
2024/01/21 02:34:57;;;;;;;3.67;3.00;;;;;;;;;;4934629;29;20032;-67
2024/01/21 02:37:22;;;;;;;3.92;3.30;;;;;;;;;;4932366;29;20028;-68
2024/01/21 02:39:48;;;;;;;3.70;3.10;;;;;;;;;;4933535;29;20433;-70
2024/01/21 02:42:14;;;;;;;2.75;2.55;;;;;;;;;;4933440;29;20027;-72
2024/01/21 02:44:39;;;;;;;3.28;2.97;;;;;;;;;;4934674;29;20032;-70
2024/01/21 02:47:05;;;;;;;3.83;3.00;;;;;;;;;;4936091;29;20376;-71
2024/01/21 02:49:31;;;;;;;3.10;2.70;;;;;;;;;;4936816;29;20074;-68
2024/01/21 02:51:57;;;;;;;2.83;2.60;;;;;;;;;;4936950;29;20508;-71
2024/01/21 02:54:23;;;;;;;3.17;2.88;;;;;;;;;;4936712;29;20481;-70
2024/01/21 02:56:48;;;;;;;3.90;2.90;;;;;;;;;;4918344;29;20557;-69
2024/01/21 02:59:14;;;;;;;3.05;2.70;;;;;;;;;;4936654;29;20027;-69
2024/01/21 03:01:39;;;;;;;2.70;2.50;;;;;;;;;;4936379;29;20059;-68
2024/01/21 03:04:05;;;;;;;4.93;3.70;;;;;;;;;;4919348;29;20051;-69
2024/01/21 03:06:30;;;;;;;2.88;2.60;;;;;;;;;;4936469;29;20024;-68
2024/01/21 03:08:56;;;;;;;2.80;2.50;;;;;;;;;;4936096;29;20058;-69
2024/01/21 03:11:22;;;;;;;3.00;2.70;;;;;;;;;;4936050;29;20028;-69
2024/01/21 03:13:48;;;;;;;4.07;2.97;;;;;;;;;;4919346;29;20440;-69
2024/01/21 03:16:14;;;;;;;3.20;2.65;;;;;;;;;;4936134;29;20114;-70
2024/01/21 03:18:40;;;;;;;3.65;2.65;;;;;;;;;;4936191;29;20067;-67
2024/01/21 03:21:09;;;;;;;2.50;2.30;;;;;;;;;;4936192;29;20047;-69
2024/01/21 03:23:35;;;;;;;3.75;2.75;;;;;;;;;;4934057;29;20024;-68
2024/01/21 03:26:00;;;;;;;3.65;2.50;;;;;;;;;;4935402;29;20536;-68
2024/01/21 03:28:26;;;;;;;3.78;2.88;;;;;;;;;;4936794;29;20030;-68
2024/01/21 03:30:52;;;;;;;4.10;2.80;;;;;;;;;;4937344;29;20028;-68
2024/01/21 03:33:17;;;;;;;2.80;2.50;;;;;;;;;;4935682;29;20380;-71
2024/01/21 03:35:43;;;;;;;4.40;2.58;;;;;;;;;;4937164;29;20028;-73
2024/01/21 03:38:09;;;;;;;2.70;2.50;;;;;;;;;;4936823;29;20027;-70
2024/01/21 03:40:34;;;;;;;3.42;2.58;;;;;;;;;;4935382;29;20471;-75
2024/01/21 03:43:00;;;;;;;3.25;2.60;;;;;;;;;;4936343;29;20032;-68
2024/01/21 03:45:26;;;;;;;3.08;2.42;;;;;;;;;;4935865;29;20103;-73
2024/01/21 03:47:51;;;;;;;2.60;2.40;;;;;;;;;;4919574;29;20080;-73
2024/01/21 03:50:19;;;;;;;4.65;2.58;;;;;;;;;;4917081;29;20054;-70
2024/01/21 03:52:49;;;;;;;3.60;2.83;;;;;;;;;;4917286;29;20056;-74
2024/01/21 03:55:15;;;;;;;2.90;2.45;;;;;;;;;;4917200;29;20040;-74
2024/01/21 03:57:41;;;;;;;2.90;2.60;;;;;;;;;;4916635;29;20028;-70
2024/01/21 04:00:08;;;;;;;2.88;2.50;;;;;;;;;;4916320;29;20785;-71
2024/01/21 04:02:35;;;;;;;3.72;2.53;;;;;;;;;;4917156;29;20079;-71
2024/01/21 04:05:00;;;;;;;3.40;2.58;;;;;;;;;;4917170;29;20058;-71
2024/01/21 04:07:26;;;;;;;3.38;2.50;;;;;;;;;;4917483;29;20489;-70
2024/01/21 04:09:51;;;;;;;2.80;2.50;;;;;;;;;;4917687;29;20028;-68
2024/01/21 04:12:17;;;;;;;3.80;2.78;;;;;;;;;;4917448;29;20422;-70
2024/01/21 04:14:43;;;;;;;2.53;2.33;;;;;;;;;;4917415;29;20031;-69
2024/01/21 04:17:09;;;;;;;4.43;2.65;;;;;;;;;;4917475;29;20071;-69
2024/01/21 04:19:34;;;;;;;2.95;2.65;;;;;;;;;;4917249;29;20060;-70
2024/01/21 04:22:00;;;;;;;3.25;2.60;;;;;;;;;;4917210;29;20055;-69
2024/01/21 04:24:26;;;;;;;3.72;2.40;;;;;;;;;;4917492;29;20088;-69
2024/01/21 04:26:52;;;;;;;2.95;2.60;;;;;;;;;;4917119;29;20662;-69
2024/01/21 04:29:17;;;;;;;2.85;2.28;;;;;;;;;;4917173;29;20036;-70
2024/01/21 04:31:46;;;;;;;2.60;2.38;;;;;;;;;;4917109;29;20020;-70
2024/01/21 04:34:11;;;;;;;3.17;2.55;;;;;;;;;;4917004;29;20115;-69
2024/01/21 04:36:37;;;;;;;2.58;2.38;;;;;;;;;;4917127;29;20118;-69
2024/01/21 04:39:02;;;;;;;2.72;2.35;;;;;;;;;;4916978;29;20028;-72
2024/01/21 04:41:28;;;;;;;3.53;2.67;;;;;;;;;;4916862;29;20024;-69
2024/01/21 04:43:53;;;;;;;2.42;2.22;;;;;;;;;;4917111;29;20032;-71
2024/01/21 04:46:19;;;;;;;2.58;2.38;;;;;;;;;;4900021;29;20032;-69
2024/01/21 04:48:44;;;;;;;3.33;2.65;;;;;;;;;;4916720;29;20096;-70
2024/01/21 04:51:13;;;;;;;2.78;2.50;;;;;;;;;;4916775;29;20378;-71
2024/01/21 04:53:39;;;;;;;2.65;2.45;;;;;;;;;;4916775;29;20028;-72
2024/01/21 04:56:05;;;;;;;4.22;2.38;;;;;;;;;;4916775;29;20525;-69
2024/01/21 04:58:31;;;;;;;2.83;2.60;;;;;;;;;;4916716;29;20052;-70
2024/01/21 05:00:57;;;;;;;2.60;2.40;;;;;;;;;;4916600;29;20459;-71
2024/01/21 05:03:22;;;;;;;3.22;2.40;;;;;;;;;;4916395;29;20050;-73
2024/01/21 05:05:49;;;;;;;3.85;2.42;;;;;;;;;;4899511;29;20040;-70
2024/01/21 05:08:14;;;;;;;2.50;2.30;;;;;;;;;;4916522;29;20025;-71
2024/01/21 05:10:40;;;;;;;2.60;2.40;;;;;;;;;;4916446;29;20083;-71
2024/01/21 05:13:06;;;;;;;3.65;2.60;;;;;;;;;;4916495;29;20035;-73
2024/01/21 05:15:31;;;;;;;2.50;2.30;;;;;;;;;;4899447;29;20381;-73
2024/01/21 05:17:57;;;;;;;2.67;2.33;;;;;;;;;;4916168;29;20068;-69
2024/01/21 05:20:23;;;;;;;2.83;2.47;;;;;;;;;;4916270;29;20036;-72
2024/01/21 05:22:50;;;;;;;2.20;2.00;;;;;;;;;;4916619;29;20047;-70
2024/01/21 05:25:17;;;;;;;3.65;2.53;;;;;;;;;;4916490;29;20035;-68
2024/01/21 05:27:42;;;;;;;2.83;2.42;;;;;;;;;;4916315;29;20039;-68
2024/01/21 05:30:08;;;;;;;2.65;2.28;;;;;;;;;;4916395;29;20040;-68
2024/01/21 05:32:33;;;;;;;4.10;2.70;;;;;;;;;;4916203;29;20469;-69
2024/01/21 05:34:59;;;;;;;3.00;2.50;;;;;;;;;;4916162;29;20092;-71
2024/01/21 05:37:24;;;;;;;2.95;2.55;;;;;;;;;;4916404;29;20032;-71
2024/01/21 05:39:50;;;;;;;2.80;2.50;;;;;;;;;;4915959;29;20465;-68
2024/01/21 05:42:15;;;;;;;2.80;2.60;;;;;;;;;;4916107;29;20055;-68
2024/01/21 05:44:41;;;;;;;3.20;2.33;;;;;;;;;;4916116;29;20035;-70
2024/01/21 05:47:07;;;;;;;2.38;2.15;;;;;;;;;;4916059;29;20032;-68
2024/01/21 05:49:33;;;;;;;2.58;2.38;;;;;;;;;;4916020;29;20035;-72
2024/01/21 05:51:58;;;;;;;2.63;2.30;;;;;;;;;;4916172;29;20039;-67
2024/01/21 05:54:25;;;;;;;2.53;2.33;;;;;;;;;;4916489;29;20610;-74
2024/01/21 05:56:51;;;;;;;2.90;2.60;;;;;;;;;;4916327;29;20039;-73
2024/01/21 05:59:17;;;;;;;4.25;2.75;;;;;;;;;;4916018;29;20449;-75
2024/01/21 06:01:50;;;;;;;3.17;2.50;;;;;;;;;;4916001;29;20060;-72
2024/01/21 06:04:18;;;;;;;2.90;2.40;;;;;;;;;;4915998;29;20117;-73
2024/01/21 06:06:44;;;;;;;2.30;2.10;;;;;;;;;;4915859;29;20487;-74
2024/01/21 06:09:10;;;;;;;2.45;2.25;;;;;;;;;;4916115;29;20028;-68
2024/01/21 06:11:35;;;;;;;2.83;2.45;;;;;;;;;;4916152;29;20028;-72
2024/01/21 06:14:01;;;;;;;2.83;2.45;;;;;;;;;;4915974;29;20028;-69
2024/01/21 06:16:27;;;;;;;3.08;2.25;;;;;;;;;;4916163;29;20025;-70
2024/01/21 06:18:52;;;;;;;2.80;2.33;;;;;;;;;;4916048;29;20059;-69
2024/01/21 06:21:17;;;;;;;2.22;2.03;;;;;;;;;;4919392;29;20028;-69
2024/01/21 06:23:44;;;;;;;2.30;2.10;;;;;;;;;;4919729;29;20029;-70
2024/01/21 06:26:20;;;;;;;2.60;2.38;;;;;;;;;;4902365;29;20032;-68
2024/01/21 06:28:52;;;;;;;2.28;2.08;;;;;;;;;;4919455;29;20490;-71
2024/01/21 06:31:19;;;;;;;3.85;2.50;;;;;;;;;;4919310;29;20111;-68
2024/01/21 06:33:44;;;;;;;2.90;2.30;;;;;;;;;;4902335;29;20649;-68
2024/01/21 06:36:10;;;;;;;3.50;2.60;;;;;;;;;;4919068;29;20064;-68
2024/01/21 06:38:38;;;;;;;2.78;2.47;;;;;;;;;;4919126;29;20024;-69
2024/01/21 06:41:03;;;;;;;2.67;2.40;;;;;;;;;;4919094;29;20028;-68
2024/01/21 06:43:29;;;;;;;2.60;2.38;;;;;;;;;;4919054;29;20039;-68
2024/01/21 06:45:55;;;;;;;2.80;2.50;;;;;;;;;;4902029;29;20043;-68
2024/01/21 06:48:20;;;;;;;3.10;2.53;;;;;;;;;;4918981;29;20031;-68
2024/01/21 06:50:48;;;;;;;2.42;2.22;;;;;;;;;;4918920;29;20028;-70
2024/01/21 06:53:15;;;;;;;2.50;2.30;;;;;;;;;;4918945;29;20036;-68
2024/01/21 06:55:43;;;;;;;2.80;2.30;;;;;;;;;;4918819;29;20031;-71
2024/01/21 06:58:09;;;;;;;2.38;2.17;;;;;;;;;;4918801;29;20032;-71
2024/01/21 07:00:34;;;;;;;2.40;2.20;;;;;;;;;;4918994;29;20032;-71
2024/01/21 07:03:00;;;;;;;2.42;2.22;;;;;;;;;;4918310;29;20101;-71
2024/01/21 07:05:25;;;;;;;2.65;2.30;;;;;;;;;;4918722;29;20047;-71
2024/01/21 07:07:51;;;;;;;2.85;2.30;;;;;;;;;;4918615;29;20472;-71
2024/01/21 07:10:16;;;;;;;2.53;2.28;;;;;;;;;;4918545;29;20032;-70
2024/01/21 07:12:42;;;;;;;2.47;2.13;;;;;;;;;;4918595;29;20035;-69
2024/01/21 07:15:08;;;;;;;2.67;2.30;;;;;;;;;;4918528;29;20120;-69
2024/01/21 07:17:34;;;;;;;2.58;2.30;;;;;;;;;;4918706;29;20112;-68
2024/01/21 07:19:59;;;;;;;2.53;2.33;;;;;;;;;;4918522;29;20043;-69
2024/01/21 07:22:25;;;;;;;2.40;2.20;;;;;;;;;;4918474;29;20103;-69
2024/01/21 07:24:51;;;;;;;2.80;2.60;;;;;;;;;;4918560;29;20020;-68
2024/01/21 07:27:16;;;;;;;2.42;2.22;;;;;;;;;;4918572;29;20028;-70
2024/01/21 07:29:42;;;;;;;2.58;2.38;;;;;;;;;;4918664;29;20030;-68
2024/01/21 07:32:08;;;;;;;2.50;2.30;;;;;;;;;;4917630;29;20504;-69
2024/01/21 07:34:33;;;;;;;2.75;2.40;;;;;;;;;;4918231;29;20461;-71
2024/01/21 07:36:59;;;;;;;3.33;2.25;;;;;;;;;;4918189;29;20111;-69
2024/01/21 07:39:24;;;;;;;2.85;2.20;;;;;;;;;;4918013;29;20028;-71
2024/01/21 07:41:50;;;;;;;2.78;2.35;;;;;;;;;;4917973;29;20024;-69
2024/01/21 07:44:15;;;;;;;3.33;2.65;;;;;;;;;;4918024;29;20111;-70
2024/01/21 07:46:41;;;;;;;2.50;2.30;;;;;;;;;;4918151;29;20051;-71
2024/01/21 07:49:06;;;;;;;2.45;2.25;;;;;;;;;;4917937;29;20028;-72
2024/01/21 07:51:32;;;;;;;2.22;2.03;;;;;;;;;;4917900;29;20028;-72
2024/01/21 07:53:57;;;;;;;3.03;2.30;;;;;;;;;;4917988;29;20028;-70
2024/01/21 07:56:24;;;;;;;2.30;2.10;;;;;;;;;;4917800;29;20479;-67
2024/01/21 07:58:49;;;;;;;3.08;2.53;;;;;;;;;;4917678;29;20035;-73
2024/01/21 08:01:17;;;;;;;2.85;2.30;;;;;;;;;;4917700;29;20024;-72
2024/01/21 08:03:42;;;;;;;2.55;2.33;;;;;;;;;;4917547;29;20135;-74
2024/01/21 08:06:08;;;;;;;2.45;2.25;;;;;;;;;;4900542;29;20122;-74
2024/01/21 08:08:34;;;;;;;3.03;2.53;;;;;;;;;;4917800;29;20055;-68
2024/01/21 08:10:59;;;;;;;2.45;2.25;;;;;;;;;;4917566;29;20406;-71
2024/01/21 08:13:25;;;;;;;3.10;2.17;;;;;;;;;;4917703;29;20107;-68
2024/01/21 08:15:50;;;;;;;2.30;2.10;;;;;;;;;;4918061;29;20028;-72
2024/01/21 08:18:19;;;;;;;2.40;2.20;;;;;;;;;;4917391;29;20027;-72
2024/01/21 08:20:46;;;;;;;2.60;2.40;;;;;;;;;;4917261;29;20032;-70
2024/01/21 08:23:11;;;;;;;3.65;2.22;;;;;;;;;;4917272;29;20469;-73
2024/01/21 08:25:37;;;;;;;2.53;2.28;;;;;;;;;;4917294;29;20115;-71
2024/01/21 08:28:03;;;;;;;2.35;1.90;;;;;;;;;;4917419;29;20381;-72
2024/01/21 08:30:28;;;;;;;2.63;2.20;;;;;;;;;;4917162;29;20553;-72
2024/01/21 08:32:54;;;;;;;3.05;2.15;;;;;;;;;;4917151;29;20039;-73
2024/01/21 08:35:20;;;;;;;3.22;2.33;;;;;;;;;;4917335;29;20036;-72
2024/01/21 08:37:47;;;;;;;2.47;2.28;;;;;;;;;;4917009;29;20528;-71
2024/01/21 08:40:13;;;;;;;2.50;2.28;;;;;;;;;;4899886;29;20497;-71
2024/01/21 08:42:39;;;;;;;2.55;1.90;;;;;;;;;;4916535;29;20087;-71
2024/01/21 08:45:05;;;;;;;3.30;2.38;;;;;;;;;;4916976;29;20024;-70
2024/01/21 08:47:31;;;;;;;2.70;2.30;;;;;;;;;;4916871;29;20086;-71
2024/01/21 08:49:57;;;;;;;2.80;2.40;;;;;;;;;;4916762;29;20104;-69
2024/01/21 08:52:22;;;;;;;2.90;2.35;;;;;;;;;;4916801;29;20458;-72
2024/01/21 08:54:48;;;;;;;3.25;2.40;;;;;;;;;;4916737;29;20036;-72
2024/01/21 08:57:13;;;;;;;2.53;2.10;;;;;;;;;;4916910;29;20028;-71
2024/01/21 08:59:39;;;;;;;2.50;2.30;;;;;;;;;;4916415;29;20028;-71
2024/01/21 09:02:05;;;;;;;2.88;2.35;;;;;;;;;;4916365;29;20048;-70
2024/01/21 09:04:30;;;;;;;2.35;2.15;;;;;;;;;;4916570;29;20031;-71
2024/01/21 09:06:56;;;;;;;2.40;2.20;;;;;;;;;;4916607;29;20099;-70
2024/01/21 09:09:21;;;;;;;2.30;2.10;;;;;;;;;;4899525;29;20123;-69
2024/01/21 09:11:47;;;;;;;2.50;2.30;;;;;;;;;;4916412;29;20052;-71
2024/01/21 09:14:13;;;;;;;2.40;2.20;;;;;;;;;;4916418;29;20034;-68
2024/01/21 09:16:38;;;;;;;2.60;2.40;;;;;;;;;;4916472;29;20035;-70
2024/01/21 09:19:05;;;;;;;2.75;2.22;;;;;;;;;;4916472;29;20063;-71
2024/01/21 09:21:32;;;;;;;2.47;2.22;;;;;;;;;;4916434;29;20032;-71
2024/01/21 09:24:01;;;;;;;2.83;2.55;;;;;;;;;;4916333;29;20048;-72
2024/01/21 09:26:27;;;;;;;3.00;2.30;;;;;;;;;;4916482;29;20052;-71
2024/01/21 09:28:52;;;;;;;2.40;2.17;;;;;;;;;;4916317;29;20508;-72
2024/01/21 09:31:18;;;;;;;2.58;2.38;;;;;;;;;;4916224;29;20659;-72
2024/01/21 09:33:43;;;;;;;2.50;2.30;;;;;;;;;;4916208;29;20103;-72
2024/01/21 09:36:09;;;;;;;2.63;2.42;;;;;;;;;;4915965;29;20060;-72
2024/01/21 09:38:34;;;;;;;2.78;2.58;;;;;;;;;;4916053;29;20032;-69
2024/01/21 09:41:12;;;;;;;2.92;2.50;;;;;;;;;;4916069;29;20028;-70
2024/01/21 09:43:42;;;;;;;2.45;2.25;;;;;;;;;;4916050;29;20032;-70
2024/01/21 09:46:11;;;;;;;2.92;2.38;;;;;;;;;;4915825;29;20492;-70
2024/01/21 09:48:38;;;;;;;2.72;2.45;;;;;;;;;;4923308;29;20063;-69
2024/01/21 09:51:05;;;;;;;2.50;2.30;;;;;;;;;;4908899;29;20031;-69
2024/01/21 09:53:30;;;;;;;2.85;2.55;;;;;;;;;;4920714;29;20027;-70
2024/01/21 09:56:00;;;;;;;2.30;2.10;;;;;;;;;;4928490;29;20493;-70
2024/01/21 09:58:27;;;;;;;2.50;2.30;;;;;;;;;;4927984;29;20500;-70
2024/01/21 10:00:53;;;;;;;3.13;2.70;;;;;;;;;;4928584;29;20035;-69
2024/01/21 10:03:20;;;;;;;2.95;2.30;;;;;;;;;;4929358;29;20059;-68
2024/01/21 10:05:46;;;;;;;3.15;2.63;;;;;;;;;;4924635;29;20073;-68
2024/01/21 10:08:11;;;;;;;2.80;2.53;;;;;;;;;;4924715;29;20465;-69
2024/01/21 10:10:37;;;;;;;2.80;2.47;;;;;;;;;;4929771;29;20042;-71
2024/01/21 10:13:03;;;;;;;2.75;2.42;;;;;;;;;;4924961;29;20028;-71
2024/01/21 10:15:30;;;;;;;2.47;2.28;;;;;;;;;;4924646;29;20058;-69
2024/01/21 10:17:55;;;;;;;2.67;2.35;;;;;;;;;;4938269;29;20477;-70
2024/01/21 10:20:21;;;;;;;2.72;2.53;;;;;;;;;;4921036;29;20045;-71
2024/01/21 10:22:48;;;;;;;2.80;2.50;;;;;;;;;;4938428;29;20034;-71
2024/01/21 10:25:14;;;;;;;2.65;2.30;;;;;;;;;;4938382;29;20035;-69
2024/01/21 10:27:40;;;;;;;3.28;2.53;;;;;;;;;;4938264;29;20030;-67
2024/01/21 10:30:08;;;;;;;3.22;2.20;;;;;;;;;;4938204;29;20110;-68
2024/01/21 10:32:34;;;;;;;2.92;2.53;;;;;;;;;;4938256;29;20087;-69
2024/01/21 10:35:00;;;;;;;2.50;2.30;;;;;;;;;;4938252;29;20053;-67
2024/01/21 10:37:28;;;;;;;2.42;2.10;;;;;;;;;;4921044;29;20118;-69
2024/01/21 10:39:54;;;;;;;2.90;2.60;;;;;;;;;;4938028;29;20064;-70
2024/01/21 10:42:20;;;;;;;3.15;2.50;;;;;;;;;;4934704;29;20036;-68
2024/01/21 10:44:46;;;;;;;3.45;2.53;;;;;;;;;;4930056;29;20052;-70
2024/01/21 10:47:13;;;;;;;2.40;2.20;;;;;;;;;;4934029;29;20402;-69
2024/01/21 10:49:39;;;;;;;3.10;2.58;;;;;;;;;;4937231;29;20027;-67
2024/01/21 10:52:08;;;;;;;3.83;2.50;;;;;;;;;;4938028;29;20020;-72
2024/01/21 10:54:37;;;;;;;4.20;2.50;;;;;;;;;;4937790;29;20032;-67
2024/01/21 10:57:03;;;;;;;2.60;2.35;;;;;;;;;;4936417;29;20032;-73
2024/01/21 10:59:30;;;;;;;3.10;2.63;;;;;;;;;;4936545;29;20464;-71
2024/01/21 11:01:56;;;;;;;2.30;2.10;;;;;;;;;;4933196;29;20063;-69
2024/01/21 11:04:22;;;;;;;4.95;2.72;;;;;;;;;;4935635;29;20028;-67
2024/01/21 11:06:51;;;;;;;2.92;2.40;;;;;;;;;;4936094;29;20016;-70
2024/01/21 11:09:22;;;;;;;2.55;2.30;;;;;;;;;;4936289;29;20019;-70
2024/01/21 11:11:50;;;;;;;6.30;3.88;;;;;;;;;;4936392;29;20102;-68
2024/01/21 11:14:34;;;;;;;2.53;2.33;;;;;;;;;;4936318;29;20107;-64
2024/01/21 11:17:11;;;;;;;3.80;2.83;;;;;;;;;;4936350;29;20082;-65
2024/01/21 11:19:49;;;;;;;2.75;2.33;;;;;;;;;;4934704;29;20057;-65
2024/01/21 11:22:16;;;;;;;3.38;2.55;;;;;;;;;;4935597;29;20102;-66
2024/01/21 11:24:42;;;;;;;3.25;2.65;;;;;;;;;;4935073;29;20020;-70
2024/01/21 11:27:25;;;;;;;2.83;2.50;;;;;;;;;;4936111;29;20113;-64
2024/01/21 11:29:53;;;;;;;3.00;2.70;;;;;;;;;;4934865;29;20096;-65
2024/01/21 11:32:28;;;;;;;2.95;2.65;;;;;;;;;;4936084;29;20059;-67
2024/01/21 11:34:54;;;;;;;2.65;2.42;;;;;;;;;;4935325;29;20020;-72
2024/01/21 11:37:20;;;;;;;2.92;2.42;;;;;;;;;;4935991;29;20028;-68
2024/01/21 11:39:46;;;;;;;5.25;2.35;;;;;;;;;;4935772;29;20043;-70
2024/01/21 11:42:12;;;;;;;2.70;2.33;;;;;;;;;;4935694;29;20030;-72
2024/01/21 11:44:39;;;;;;;2.65;2.45;;;;;;;;;;4934582;29;20020;-73
2024/01/21 11:47:06;;;;;;;3.05;2.50;;;;;;;;;;4935752;29;20389;-65
2024/01/21 11:49:33;;;;;;;2.50;2.30;;;;;;;;;;4928930;29;20028;-68
2024/01/21 11:52:00;;;;;;;2.60;2.40;;;;;;;;;;4933242;29;20079;-72
2024/01/21 11:54:26;;;;;;;2.85;2.40;;;;;;;;;;4916540;29;20441;-65
2024/01/21 11:56:55;;;;;;;2.53;2.28;;;;;;;;;;4936197;29;20357;-66
2024/01/21 11:59:21;;;;;;;2.40;2.20;;;;;;;;;;4936619;29;20027;-68
2024/01/21 12:01:48;;;;;;;2.75;2.30;;;;;;;;;;4934809;29;20138;-64
2024/01/21 12:04:13;;;;;;;4.28;2.80;;;;;;;;;;4935585;29;20495;-68
2024/01/21 12:06:47;;;;;;;3.00;2.60;;;;;;;;;;4935714;29;20028;-68
2024/01/21 12:09:13;;;;;;;2.55;2.35;;;;;;;;;;4935601;29;20031;-63
2024/01/21 12:11:39;;;;;;;2.55;2.33;;;;;;;;;;4935620;29;20499;-65
2024/01/21 12:14:07;;;;;;;2.85;2.53;;;;;;;;;;4935595;29;20389;-64
2024/01/21 12:16:36;;;;;;;2.80;2.50;;;;;;;;;;4934999;29;20058;-66
2024/01/21 12:19:02;;;;;;;2.90;2.40;;;;;;;;;;4935516;29;20118;-68
2024/01/21 12:21:30;;;;;;;2.97;2.60;;;;;;;;;;4935458;29;20254;-67
2024/01/21 12:23:57;;;;;;;3.38;2.47;;;;;;;;;;4935285;29;20035;-68
2024/01/21 12:26:24;;;;;;;3.05;2.38;;;;;;;;;;4935346;29;20110;-64
2024/01/21 12:28:57;;;;;;;2.50;2.30;;;;;;;;;;4935262;29;20035;-68
2024/01/21 12:31:27;;;;;;;2.92;2.33;;;;;;;;;;4935197;29;20035;-68
2024/01/21 12:33:53;;;;;;;2.38;2.17;;;;;;;;;;4935422;29;20074;-65
2024/01/21 12:36:19;;;;;;;2.30;2.10;;;;;;;;;;4935220;29;20438;-62
2024/01/21 12:38:45;;;;;;;3.88;2.60;;;;;;;;;;4935016;29;20024;-67
2024/01/21 12:41:10;;;;;;;2.83;2.35;;;;;;;;;;4935122;29;20024;-66
2024/01/21 12:43:36;;;;;;;2.88;2.35;;;;;;;;;;4935109;29;20060;-67
2024/01/21 12:46:03;;;;;;;2.42;2.22;;;;;;;;;;4934893;29;20020;-63
2024/01/21 12:48:29;;;;;;;2.45;2.25;;;;;;;;;;4935347;29;20031;-69
2024/01/21 12:50:55;;;;;;;2.53;2.33;;;;;;;;;;4935125;29;20031;-64
2024/01/21 12:53:20;;;;;;;2.75;2.50;;;;;;;;;;4935237;29;20023;-66
2024/01/21 12:55:46;;;;;;;2.70;2.33;;;;;;;;;;4934999;29;20369;-72
2024/01/21 12:58:12;;;;;;;2.58;2.20;;;;;;;;;;4935173;29;20036;-69
2024/01/21 13:00:39;;;;;;;2.85;2.25;;;;;;;;;;4934860;29;20028;-64
2024/01/21 13:03:05;;;;;;;5.63;2.83;;;;;;;;;;4884681;29;1482019;-70
2024/01/21 13:05:30;;;;;;;2.83;2.53;;;;;;;;;;4935591;29;20043;-70
2024/01/21 13:07:58;;;;;;;3.25;2.53;;;;;;;;;;4935336;29;20024;-69
2024/01/21 13:10:25;;;;;;;2.80;2.60;;;;;;;;;;4935455;29;20476;-69
2024/01/21 13:12:51;;;;;;;6.22;4.57;;;;;;;;;;4935683;29;20050;-65
2024/01/21 13:15:16;;;;;;;10.05;5.22;;;;;;;;;;4935756;29;20051;-65
2024/01/21 13:17:42;;;;;;;14.80;11.45;;;;;;;;;;4933273;29;20473;-70
2024/01/21 13:20:08;;;;;;;14.07;7.28;;;;;;;;;;4934768;29;20035;-70
2024/01/21 13:22:34;;;;;;;5.82;4.90;;;;;;;;;;4935624;29;20023;-66
2024/01/21 13:25:00;;;;;;;8.35;5.68;;;;;;;;;;4935601;29;20094;-73
2024/01/21 13:27:27;;;;;;;7.88;6.30;;;;;;;;;;4935399;29;20474;-74
2024/01/21 13:32:43;;;;;;;13.82;6.90;;;;;;;;;;4935431;29;20503;-71
2024/01/21 13:35:08;;;;;;;8.85;6.05;;;;;;;;;;4935142;29;20031;-65
2024/01/21 13:37:35;;;;;;;8.80;6.60;;;;;;;;;;4932919;29;20393;-71
2024/01/21 13:40:00;;;;;;;11.65;6.03;;;;;;;;;;4934241;29;20405;-70
2024/01/21 13:42:26;;;;;;;8.65;5.75;;;;;;;;;;4933881;29;20329;-64
2024/01/21 13:44:51;;;;;;;10.93;6.22;;;;;;;;;;4934001;29;20127;-70
2024/01/21 13:47:17;;;;;;;11.23;6.10;;;;;;;;;;4934302;29;20030;-70
2024/01/21 13:49:42;;;;;;;8.20;5.78;;;;;;;;;;4933534;29;20023;-63
2024/01/21 13:52:13;;;;;;;9.18;6.03;;;;;;;;;;4932595;29;20111;-71
2024/01/21 13:54:39;;;;;;;9.52;5.97;;;;;;;;;;4934471;29;20099;-65
2024/01/21 13:57:07;;;;;;;10.52;5.88;;;;;;;;;;4933872;29;20036;-64
2024/01/21 13:59:32;;;;;;;8.10;6.18;;;;;;;;;;4934427;29;20091;-71
2024/01/21 14:01:58;;;;;;;8.73;5.93;;;;;;;;;;4934822;29;20052;-70
2024/01/21 14:04:25;;;;;;;9.13;6.03;;;;;;;;;;4935016;29;20445;-63
2024/01/21 14:06:51;;;;;;;7.47;5.90;;;;;;;;;;4935206;29;20026;-71
2024/01/21 14:09:16;;;;;;;9.07;5.95;;;;;;;;;;4935195;29;20106;-68
2024/01/21 14:11:43;;;;;;;8.98;5.80;;;;;;;;;;4934891;29;20028;-72
2024/01/21 14:14:09;;;;;;;7.07;5.72;;;;;;;;;;4934893;29;20028;-71
2024/01/21 14:16:34;;;;;;;9.65;5.35;;;;;;;;;;4934847;29;20107;-67
2024/01/21 14:19:00;;;;;;;7.25;5.45;;;;;;;;;;4934989;29;20035;-64
2024/01/21 14:21:25;;;;;;;12.95;6.10;;;;;;;;;;4934827;29;20059;-71
2024/01/21 14:23:52;;;;;;;8.57;5.65;;;;;;;;;;4935115;29;20119;-70
2024/01/21 14:26:20;;;;;;;8.43;5.78;;;;;;;;;;4934784;29;20031;-66
2024/01/21 14:28:46;;;;;;;7.07;5.63;;;;;;;;;;4917683;29;20057;-64
2024/01/21 14:31:11;;;;;;;9.75;5.50;;;;;;;;;;4934988;29;20043;-68
2024/01/21 14:33:37;;;;;;;9.00;5.82;;;;;;;;;;4934699;29;20378;-64
2024/01/21 14:36:04;;;;;;;8.30;5.43;;;;;;;;;;4934785;29;20032;-69
2024/01/21 14:38:30;;;;;;;6.25;5.20;;;;;;;;;;4934924;29;20032;-67
2024/01/21 14:40:57;;;;;;;8.68;4.97;;;;;;;;;;4936409;29;20477;-64